Time;durP1;ratioP1;P1;durP2;ratioP2;P2;SDS_P1;SDS_P2;PMS_P1;PMS_P2;Temp;Humidity;BMP_temperature;BMP_pressure;BME280_temperature;BME280_humidity;BME280_pressure;Samples;Min_cycle;Max_cycle;Signal;HPM_P1;HPM_P2
2023/09/24 00:01:15;;;;;;;3.30;3.00;;;8.50;99.90;;;;;;5004703;28;20290;-65
2023/09/24 00:03:42;;;;;;;2.60;2.40;;;8.50;99.90;;;;;;5003639;28;20302;-65
2023/09/24 00:06:10;;;;;;;3.00;2.80;;;8.40;99.90;;;;;;5012314;28;20211;-65
2023/09/24 00:08:36;;;;;;;3.55;3.35;;;8.50;99.90;;;;;;5012794;28;20208;-65
2023/09/24 00:11:05;;;;;;;3.55;3.25;;;8.40;99.90;;;;;;5012651;28;20298;-65
2023/09/24 00:13:33;;;;;;;4.22;3.92;;;8.40;99.90;;;;;;5011897;28;20243;-66
2023/09/24 00:16:04;;;;;;;4.30;4.00;;;8.40;99.90;;;;;;5012477;28;20351;-65
2023/09/24 00:18:32;;;;;;;2.97;2.78;;;8.30;99.90;;;;;;5012180;28;20604;-65
2023/09/24 00:20:58;;;;;;;3.78;3.47;;;8.30;99.90;;;;;;5012336;28;20207;-65
2023/09/24 00:23:25;;;;;;;3.47;3.22;;;8.30;99.90;;;;;;5011917;28;20227;-65
2023/09/24 00:25:52;;;;;;;3.50;3.30;;;8.30;99.90;;;;;;5011956;28;20207;-65
2023/09/24 00:28:20;;;;;;;4.38;3.58;;;8.30;99.90;;;;;;5004523;28;20210;-65
2023/09/24 00:30:48;;;;;;;3.72;3.42;;;8.30;99.90;;;;;;5012162;28;20297;-65
2023/09/24 00:33:15;;;;;;;3.90;3.60;;;8.30;99.90;;;;;;5011721;28;20231;-65
2023/09/24 00:35:42;;;;;;;3.50;3.30;;;8.30;99.90;;;;;;5012217;28;20219;-65
2023/09/24 00:38:09;;;;;;;3.60;3.30;;;8.20;99.90;;;;;;5011994;28;20251;-65
2023/09/24 00:40:36;;;;;;;5.28;3.70;;;8.20;99.90;;;;;;5010896;28;20213;-65
2023/09/24 00:43:03;;;;;;;4.35;3.95;;;8.20;99.90;;;;;;5010964;28;20235;-65
2023/09/24 00:45:32;;;;;;;4.10;3.65;;;8.20;99.90;;;;;;5012042;28;20207;-65
2023/09/24 00:48:00;;;;;;;4.25;3.95;;;8.20;99.90;;;;;;5012104;28;20235;-65
2023/09/24 00:50:32;;;;;;;3.50;3.20;;;8.10;99.90;;;;;;5011866;28;20244;-65
2023/09/24 00:53:00;;;;;;;3.40;3.20;;;8.10;99.90;;;;;;5011676;28;20228;-65
2023/09/24 00:55:28;;;;;;;4.10;3.55;;;8.10;99.90;;;;;;5012082;28;20215;-66
2023/09/24 00:57:55;;;;;;;4.65;3.63;;;8.00;99.90;;;;;;5011713;28;20227;-65
2023/09/24 01:00:25;;;;;;;3.08;2.88;;;8.00;99.90;;;;;;5011700;28;20310;-65
2023/09/24 01:02:54;;;;;;;5.07;3.42;;;8.00;99.90;;;;;;5011297;28;20226;-65
2023/09/24 01:05:21;;;;;;;4.35;3.50;;;8.00;99.90;;;;;;5011767;28;20230;-65
2023/09/24 01:07:48;;;;;;;3.40;3.20;;;8.00;99.90;;;;;;5011745;28;20234;-65
2023/09/24 01:10:15;;;;;;;3.45;3.15;;;8.00;99.90;;;;;;5011833;28;20286;-65
2023/09/24 01:12:54;;;;;;;4.28;3.97;;;8.00;99.90;;;;;;5011274;28;20752;-65
2023/09/24 01:15:23;;;;;;;3.60;3.30;;;7.90;99.90;;;;;;5011590;28;20206;-66
2023/09/24 01:17:52;;;;;;;3.13;2.92;;;7.90;99.90;;;;;;5011392;28;20227;-65
2023/09/24 01:20:22;;;;;;;2.97;2.78;;;7.90;99.90;;;;;;5011658;28;20207;-65
2023/09/24 01:22:51;;;;;;;3.10;2.80;;;7.90;99.90;;;;;;5011338;28;20238;-66
2023/09/24 01:25:19;;;;;;;2.83;2.72;;;7.80;99.90;;;;;;5011368;28;20206;-65
2023/09/24 01:27:45;;;;;;;3.30;3.10;;;7.80;99.90;;;;;;5011932;28;20207;-65
2023/09/24 01:30:14;;;;;;;5.43;3.70;;;7.90;99.90;;;;;;5011693;28;20242;-65
2023/09/24 01:32:41;;;;;;;3.97;3.67;;;7.90;99.90;;;;;;5014488;28;20234;-65
2023/09/24 01:35:09;;;;;;;3.58;3.30;;;7.80;99.90;;;;;;5015657;28;20211;-65
2023/09/24 01:37:36;;;;;;;3.30;3.10;;;7.80;99.90;;;;;;5015393;28;20229;-65
2023/09/24 01:40:16;;;;;;;3.65;3.35;;;7.80;99.90;;;;;;5015611;28;20315;-65
2023/09/24 01:42:43;;;;;;;3.20;3.00;;;7.80;99.90;;;;;;5015274;28;20233;-65
2023/09/24 01:45:11;;;;;;;3.70;3.40;;;7.80;99.90;;;;;;5015598;28;20204;-65
2023/09/24 01:47:38;;;;;;;3.30;3.00;;;7.80;99.90;;;;;;5015277;28;20206;-65
2023/09/24 01:50:07;;;;;;;3.40;3.10;;;7.70;99.90;;;;;;5014951;28;20203;-65
2023/09/24 01:52:35;;;;;;;3.95;2.50;;;7.70;99.90;;;;;;5014751;28;20317;-65
2023/09/24 01:55:03;;;;;;;3.83;3.40;;;7.70;99.90;;;;;;5014977;28;20214;-65
2023/09/24 01:57:31;;;;;;;3.55;3.35;;;7.70;99.90;;;;;;5015129;28;20229;-65
2023/09/24 01:59:58;;;;;;;3.08;2.88;;;7.60;99.90;;;;;;5015087;28;20210;-66
2023/09/24 02:02:28;;;;;;;3.80;3.50;;;7.60;99.90;;;;;;5014554;28;20255;-65
2023/09/24 02:04:55;;;;;;;3.78;3.40;;;7.60;99.90;;;;;;5014659;28;20207;-65
2023/09/24 02:07:22;;;;;;;4.25;3.85;;;7.60;99.90;;;;;;5014817;28;20696;-66
2023/09/24 02:09:49;;;;;;;3.28;2.97;;;7.60;99.90;;;;;;5015092;28;20212;-65
2023/09/24 02:12:18;;;;;;;3.25;3.05;;;7.60;99.90;;;;;;5014489;28;20243;-65
2023/09/24 02:14:45;;;;;;;3.30;3.10;;;7.60;99.90;;;;;;5014681;28;20243;-65
2023/09/24 02:17:12;;;;;;;3.53;3.20;;;7.60;99.90;;;;;;5014515;28;20221;-65
2023/09/24 02:19:44;;;;;;;3.13;2.92;;;7.50;99.90;;;;;;5014607;28;20216;-65
2023/09/24 02:22:11;;;;;;;3.30;2.80;;;7.60;99.90;;;;;;5014783;28;20714;-65
2023/09/24 02:24:40;;;;;;;2.78;2.65;;;7.50;99.90;;;;;;5014540;28;20619;-65
2023/09/24 02:27:08;;;;;;;4.25;3.95;;;7.50;99.90;;;;;;5014344;28;20218;-65
2023/09/24 02:29:37;;;;;;;3.25;3.00;;;7.50;99.90;;;;;;5014522;28;20214;-65
2023/09/24 02:32:04;;;;;;;3.33;3.05;;;7.50;99.90;;;;;;5014118;28;20211;-65
2023/09/24 02:34:31;;;;;;;3.35;2.95;;;7.50;99.90;;;;;;5014449;28;20203;-65
2023/09/24 02:36:58;;;;;;;3.03;2.78;;;7.50;99.90;;;;;;5014356;28;20203;-65
2023/09/24 02:39:24;;;;;;;2.75;2.55;;;7.50;99.90;;;;;;5014343;28;20674;-66
2023/09/24 02:41:51;;;;;;;3.20;3.00;;;7.40;99.90;;;;;;5014003;28;20674;-65
2023/09/24 02:44:19;;;;;;;3.35;3.05;;;7.40;99.90;;;;;;5013965;28;20286;-66
2023/09/24 02:46:47;;;;;;;3.85;3.55;;;7.40;99.90;;;;;;5014758;28;20207;-65
2023/09/24 02:49:14;;;;;;;3.58;3.28;;;7.40;99.90;;;;;;5014289;28;20572;-65
2023/09/24 02:51:43;;;;;;;3.63;3.17;;;7.40;99.90;;;;;;5014194;28;20235;-65
2023/09/24 02:54:10;;;;;;;3.75;2.92;;;7.40;99.90;;;;;;5013990;28;20231;-65
2023/09/24 02:56:37;;;;;;;3.38;3.13;;;7.40;99.90;;;;;;5014019;28;20211;-65
2023/09/24 02:59:04;;;;;;;4.25;3.15;;;7.40;99.90;;;;;;5013663;28;20231;-65
2023/09/24 03:01:31;;;;;;;4.28;3.50;;;7.40;99.90;;;;;;5013836;28;20207;-63
2023/09/24 03:03:59;;;;;;;3.35;3.15;;;7.30;99.90;;;;;;5013412;28;20226;-65
2023/09/24 03:06:26;;;;;;;4.32;2.67;;;7.30;99.90;;;;;;5013737;28;20294;-65
2023/09/24 03:08:54;;;;;;;3.40;3.10;;;7.30;99.90;;;;;;5013616;28;20243;-65
2023/09/24 03:11:21;;;;;;;3.67;3.38;;;7.30;99.90;;;;;;5013588;28;20290;-65
2023/09/24 03:13:47;;;;;;;3.40;3.05;;;7.30;99.90;;;;;;5011782;28;20237;-65
2023/09/24 03:16:14;;;;;;;3.13;2.83;;;7.30;99.90;;;;;;5013719;28;20209;-65
2023/09/24 03:18:41;;;;;;;8.27;3.53;;;7.30;99.90;;;;;;5013732;28;20337;-66
2023/09/24 03:21:14;;;;;;;3.78;3.20;;;7.30;99.90;;;;;;5013701;28;20211;-65
2023/09/24 03:23:41;;;;;;;3.38;3.17;;;7.20;99.90;;;;;;5013185;28;20230;-65
2023/09/24 03:26:08;;;;;;;3.05;2.72;;;7.20;99.90;;;;;;5013386;28;20708;-65
2023/09/24 03:28:35;;;;;;;3.45;3.15;;;7.20;99.90;;;;;;5013144;28;20250;-65
2023/09/24 03:31:02;;;;;;;2.95;2.70;;;7.20;99.90;;;;;;5013379;28;20204;-65
2023/09/24 03:33:29;;;;;;;2.83;2.70;;;7.20;99.90;;;;;;5012909;28;20868;-66
2023/09/24 03:35:56;;;;;;;3.58;2.65;;;7.20;99.90;;;;;;5013230;28;20206;-65
2023/09/24 03:38:24;;;;;;;2.63;2.42;;;7.20;99.90;;;;;;5013087;28;20227;-65
2023/09/24 03:40:51;;;;;;;6.13;2.95;;;7.10;99.90;;;;;;5013039;28;20234;-65
2023/09/24 03:43:18;;;;;;;3.78;2.70;;;7.20;99.90;;;;;;5012730;28;20277;-65
2023/09/24 03:45:45;;;;;;;3.10;2.55;;;7.10;99.90;;;;;;5013277;28;20586;-66
2023/09/24 03:48:13;;;;;;;3.08;2.88;;;7.10;99.90;;;;;;5013039;28;20728;-65
2023/09/24 03:50:40;;;;;;;3.55;3.33;;;7.10;99.90;;;;;;5013309;28;20297;-65
2023/09/24 03:53:06;;;;;;;2.97;2.78;;;7.10;99.90;;;;;;5012615;28;20227;-65
2023/09/24 03:55:35;;;;;;;3.42;3.13;;;7.00;99.90;;;;;;5012286;28;20246;-65
2023/09/24 03:58:02;;;;;;;3.92;3.17;;;7.00;99.90;;;;;;5012978;28;20594;-65
2023/09/24 04:00:31;;;;;;;3.38;3.10;;;7.00;99.90;;;;;;5012993;28;20215;-65
2023/09/24 04:02:58;;;;;;;4.70;3.25;;;7.00;99.90;;;;;;5012485;28;20261;-66
2023/09/24 04:05:25;;;;;;;2.88;2.60;;;7.00;99.90;;;;;;5012591;28;20297;-65
2023/09/24 04:07:53;;;;;;;3.20;2.92;;;6.90;99.90;;;;;;5012818;28;20231;-66
2023/09/24 04:10:21;;;;;;;6.80;3.30;;;7.00;99.90;;;;;;5012697;28;20218;-66
2023/09/24 04:12:51;;;;;;;3.53;3.22;;;7.00;99.90;;;;;;5012356;28;20280;-65
2023/09/24 04:15:19;;;;;;;4.18;3.80;;;7.00;99.90;;;;;;5012746;28;20627;-66
2023/09/24 04:17:47;;;;;;;4.10;3.47;;;6.90;99.90;;;;;;5012453;28;20242;-66
2023/09/24 04:20:15;;;;;;;3.55;3.00;;;6.90;99.90;;;;;;5012407;28;20214;-66
2023/09/24 04:22:44;;;;;;;5.10;3.78;;;6.80;99.90;;;;;;5011991;28;20748;-66
2023/09/24 04:25:14;;;;;;;3.30;3.00;;;6.80;99.90;;;;;;5012742;28;20755;-66
2023/09/24 04:27:41;;;;;;;3.45;3.05;;;6.80;99.90;;;;;;5012247;28;20242;-66
2023/09/24 04:30:15;;;;;;;2.88;2.67;;;6.80;99.90;;;;;;5012365;28;20246;-65
2023/09/24 04:32:42;;;;;;;3.58;3.28;;;6.80;99.90;;;;;;5012052;28;20278;-66
2023/09/24 04:35:10;;;;;;;3.33;3.03;;;6.80;99.90;;;;;;5012116;28;20217;-65
2023/09/24 04:37:39;;;;;;;2.90;2.70;;;6.80;99.90;;;;;;5012336;28;20226;-65
2023/09/24 04:40:07;;;;;;;2.50;2.40;;;6.80;99.90;;;;;;5011985;28;20230;-65
2023/09/24 04:42:35;;;;;;;2.20;2.10;;;6.80;99.90;;;;;;5012002;28;20238;-66
2023/09/24 04:45:02;;;;;;;2.55;2.28;;;6.70;99.90;;;;;;5012001;28;20213;-65
2023/09/24 04:47:30;;;;;;;2.65;2.42;;;6.70;99.90;;;;;;5011988;28;20620;-65
2023/09/24 04:49:57;;;;;;;4.22;2.20;;;6.80;99.90;;;;;;5011587;28;20211;-65
2023/09/24 04:52:24;;;;;;;2.90;2.70;;;6.70;99.90;;;;;;5011342;28;20231;-65
2023/09/24 04:54:53;;;;;;;2.13;2.03;;;6.70;99.90;;;;;;5011795;28;20210;-66
2023/09/24 04:57:19;;;;;;;2.63;2.40;;;6.80;99.90;;;;;;5012006;28;20310;-65
2023/09/24 04:59:47;;;;;;;2.92;2.67;;;6.80;99.90;;;;;;5011835;28;20237;-66
2023/09/24 05:02:13;;;;;;;2.45;2.25;;;6.80;99.90;;;;;;5011614;28;20233;-65
2023/09/24 05:04:44;;;;;;;3.55;2.90;;;6.80;99.90;;;;;;5011663;28;20293;-65
2023/09/24 05:07:10;;;;;;;4.35;3.95;;;6.80;99.90;;;;;;5011039;28;20206;-65
2023/09/24 05:09:37;;;;;;;3.58;3.03;;;6.80;99.90;;;;;;5011625;28;20213;-65
2023/09/24 05:12:05;;;;;;;5.60;3.35;;;6.80;99.90;;;;;;5011470;28;20211;-65
2023/09/24 05:14:31;;;;;;;4.47;4.07;;;6.90;99.90;;;;;;5011657;28;20633;-65
2023/09/24 05:17:00;;;;;;;3.95;3.22;;;6.90;99.90;;;;;;5011231;28;20213;-65
2023/09/24 05:19:26;;;;;;;5.00;3.80;;;6.90;99.90;;;;;;5011590;28;20610;-66
2023/09/24 05:21:55;;;;;;;4.28;3.88;;;6.90;99.90;;;;;;5011275;28;20302;-65
2023/09/24 05:24:22;;;;;;;4.35;3.95;;;6.90;99.90;;;;;;5011311;28;20214;-66
2023/09/24 05:26:48;;;;;;;3.92;3.35;;;6.90;99.90;;;;;;5011359;28;20239;-65
2023/09/24 05:29:15;;;;;;;2.90;2.70;;;6.90;99.90;;;;;;5011408;28;20203;-65
2023/09/24 05:31:42;;;;;;;4.57;3.33;;;6.90;99.90;;;;;;5011862;28;20214;-65
2023/09/24 05:34:09;;;;;;;3.80;3.03;;;6.80;99.90;;;;;;5011083;28;20630;-66
2023/09/24 05:36:36;;;;;;;3.70;3.40;;;6.90;99.90;;;;;;5010890;28;20217;-65
2023/09/24 05:39:05;;;;;;;4.63;3.10;;;6.90;99.90;;;;;;5011447;28;20319;-65
2023/09/24 05:41:31;;;;;;;4.85;4.28;;;6.90;99.90;;;;;;5011253;28;20207;-65
2023/09/24 05:44:02;;;;;;;4.57;3.65;;;6.90;99.90;;;;;;5010932;28;20258;-65
2023/09/24 05:46:29;;;;;;;4.80;4.03;;;7.00;99.90;;;;;;5011480;28;20268;-66
2023/09/24 05:48:58;;;;;;;4.25;3.78;;;7.00;99.90;;;;;;5011515;28;20587;-65
2023/09/24 05:51:25;;;;;;;3.42;3.13;;;7.10;99.90;;;;;;5011366;28;20310;-65
2023/09/24 05:53:52;;;;;;;3.78;3.58;;;7.10;99.90;;;;;;5010990;28;20580;-65
2023/09/24 05:56:21;;;;;;;4.90;4.50;;;7.10;99.90;;;;;;5010186;28;20206;-66
2023/09/24 05:58:47;;;;;;;5.55;3.92;;;7.10;99.90;;;;;;5010643;28;20230;-66
2023/09/24 06:01:15;;;;;;;5.75;4.18;;;7.10;99.90;;;;;;5002513;28;20212;-65
2023/09/24 06:03:42;;;;;;;5.47;4.60;;;7.10;99.90;;;;;;5009744;28;20234;-65
2023/09/24 06:06:10;;;;;;;4.03;3.67;;;7.20;99.90;;;;;;5002894;28;20243;-65
2023/09/24 06:08:37;;;;;;;5.45;4.00;;;7.30;99.90;;;;;;5011149;28;20212;-66
2023/09/24 06:11:04;;;;;;;6.10;4.13;;;7.40;99.90;;;;;;5010958;28;20210;-65
2023/09/24 06:13:33;;;;;;;4.30;3.90;;;7.40;99.90;;;;;;5010751;28;20239;-65
2023/09/24 06:16:01;;;;;;;4.78;4.38;;;7.50;99.90;;;;;;5011012;28;20215;-65
2023/09/24 06:18:28;;;;;;;6.70;5.05;;;7.50;99.90;;;;;;5013701;28;20298;-66
2023/09/24 06:20:56;;;;;;;5.18;4.68;;;7.60;99.90;;;;;;5014872;28;20250;-65
2023/09/24 06:23:23;;;;;;;6.78;4.35;;;7.60;99.90;;;;;;5014428;28;20315;-65
2023/09/24 06:25:56;;;;;;;5.78;4.68;;;7.70;99.90;;;;;;5014418;28;20299;-66
2023/09/24 06:28:23;;;;;;;6.10;4.40;;;7.70;99.90;;;;;;5014880;28;20207;-65
2023/09/24 06:30:59;;;;;;;5.07;4.57;;;7.80;99.90;;;;;;5014578;28;20641;-65
2023/09/24 06:33:26;;;;;;;5.63;3.78;;;7.80;99.90;;;;;;5014170;28;20242;-66
2023/09/24 06:35:53;;;;;;;4.95;4.43;;;7.90;99.90;;;;;;5005123;28;20205;-65
2023/09/24 06:38:20;;;;;;;6.45;4.57;;;8.00;99.90;;;;;;5002424;28;20208;-65
2023/09/24 06:40:46;;;;;;;8.68;4.55;;;8.00;99.90;;;;;;5013788;28;20219;-65
2023/09/24 06:43:13;;;;;;;5.60;5.10;;;8.00;99.90;;;;;;5012152;28;20310;-65
2023/09/24 06:45:40;;;;;;;6.68;5.18;;;8.00;99.90;;;;;;5013674;28;20211;-65
2023/09/24 06:48:08;;;;;;;4.82;4.32;;;8.10;99.90;;;;;;5013964;28;20674;-65
2023/09/24 06:50:37;;;;;;;4.30;3.90;;;8.20;99.90;;;;;;5013946;28;20708;-66
2023/09/24 06:53:04;;;;;;;4.95;4.45;;;8.30;99.90;;;;;;5013646;28;20229;-66
2023/09/24 06:55:31;;;;;;;3.78;3.47;;;8.30;99.90;;;;;;5014392;28;20622;-66
2023/09/24 06:57:58;;;;;;;8.05;5.28;;;8.40;99.90;;;;;;5014123;28;20219;-66
2023/09/24 07:00:25;;;;;;;5.47;5.05;;;8.50;99.90;;;;;;5013895;28;20234;-66
2023/09/24 07:02:52;;;;;;;4.70;4.30;;;8.50;99.90;;;;;;5013536;28;20224;-66
2023/09/24 07:05:20;;;;;;;4.65;4.30;;;8.60;99.90;;;;;;5013781;28;20300;-66
2023/09/24 07:07:47;;;;;;;4.55;4.15;;;8.60;99.90;;;;;;5013925;28;20209;-65
2023/09/24 07:10:14;;;;;;;5.25;4.75;;;8.70;99.90;;;;;;5013814;28;20215;-65
2023/09/24 07:12:42;;;;;;;3.63;3.33;;;8.70;99.90;;;;;;5013282;28;20777;-66
2023/09/24 07:15:10;;;;;;;6.10;4.32;;;8.70;99.90;;;;;;5013694;28;20303;-66
2023/09/24 07:17:37;;;;;;;4.85;4.25;;;8.80;99.90;;;;;;5013532;28;20640;-65
2023/09/24 07:20:05;;;;;;;4.43;4.00;;;8.80;99.90;;;;;;5013858;28;20327;-65
2023/09/24 07:22:33;;;;;;;4.25;3.80;;;8.90;99.90;;;;;;5013258;28;20479;-66
2023/09/24 07:25:00;;;;;;;3.45;3.20;;;8.90;99.90;;;;;;5013377;28;20212;-66
2023/09/24 07:27:27;;;;;;;3.08;2.88;;;8.90;99.90;;;;;;5013296;28;20211;-65
2023/09/24 07:29:53;;;;;;;3.10;2.90;;;9.00;99.90;;;;;;5012495;28;20722;-66
2023/09/24 07:32:20;;;;;;;3.35;3.15;;;9.10;99.90;;;;;;5013157;28;20315;-65
2023/09/24 07:34:47;;;;;;;3.30;3.10;;;9.20;99.90;;;;;;5013199;28;20295;-65
2023/09/24 07:37:15;;;;;;;3.70;3.40;;;9.30;99.90;;;;;;5013370;28;20451;-65
2023/09/24 07:39:49;;;;;;;4.80;4.43;;;9.40;99.90;;;;;;5013330;28;20896;-65
2023/09/24 07:42:15;;;;;;;3.90;3.57;;;9.60;99.90;;;;;;5013141;28;20243;-66
2023/09/24 07:44:42;;;;;;;4.00;3.80;;;9.70;99.90;;;;;;5012746;28;20470;-65
2023/09/24 07:47:09;;;;;;;4.00;3.70;;;9.80;99.90;;;;;;5013121;28;20449;-66
2023/09/24 07:49:36;;;;;;;4.30;3.40;;;10.00;99.90;;;;;;5012922;28;20445;-65
2023/09/24 07:52:03;;;;;;;4.53;4.10;;;10.10;99.90;;;;;;5012869;28;20547;-66
2023/09/24 07:54:30;;;;;;;5.37;4.13;;;10.30;99.90;;;;;;5012634;28;20535;-66
2023/09/24 07:56:58;;;;;;;3.30;3.00;;;10.40;99.90;;;;;;5012547;28;20541;-66
2023/09/24 07:59:25;;;;;;;4.13;3.73;;;10.60;99.90;;;;;;5012719;28;20485;-65
2023/09/24 08:01:51;;;;;;;4.17;3.73;;;10.70;99.90;;;;;;5012683;28;20927;-66
2023/09/24 08:04:18;;;;;;;3.80;3.50;;;10.90;99.90;;;;;;5012630;28;20449;-66
2023/09/24 08:06:46;;;;;;;5.67;4.17;;;11.00;99.90;;;;;;5012797;28;20894;-66
2023/09/24 08:09:13;;;;;;;7.10;5.00;;;11.20;99.90;;;;;;5012761;28;20879;-66
2023/09/24 08:11:39;;;;;;;4.40;4.00;;;11.30;99.90;;;;;;5012649;28;20450;-66
2023/09/24 08:14:08;;;;;;;5.20;4.10;;;11.30;99.90;;;;;;5011989;28;20496;-66
2023/09/24 08:16:35;;;;;;;4.07;3.77;;;11.50;99.90;;;;;;5012875;28;20456;-66
2023/09/24 08:19:02;;;;;;;4.10;3.70;;;11.50;99.90;;;;;;5012518;28;20897;-66
2023/09/24 08:21:29;;;;;;;3.80;3.50;;;11.60;99.90;;;;;;5012515;28;20458;-66
2023/09/24 08:23:55;;;;;;;3.70;3.50;;;11.70;99.90;;;;;;5011610;28;20462;-66
2023/09/24 08:26:22;;;;;;;4.37;3.67;;;11.90;99.90;;;;;;5004649;28;20577;-66
2023/09/24 08:28:49;;;;;;;3.60;3.30;;;11.90;99.90;;;;;;4992913;28;20824;-66
2023/09/24 08:31:17;;;;;;;4.00;3.40;;;12.00;99.90;;;;;;4992750;28;20450;-67
2023/09/24 08:33:44;;;;;;;3.13;2.93;;;12.10;99.90;;;;;;4992204;28;20477;-66
2023/09/24 08:36:12;;;;;;;3.93;3.17;;;12.30;99.90;;;;;;4992266;28;20454;-66
2023/09/24 08:38:39;;;;;;;3.80;3.10;;;12.30;99.90;;;;;;4993073;28;20805;-66
2023/09/24 08:41:12;;;;;;;3.10;2.90;;;12.50;99.90;;;;;;4994844;28;20494;-66
2023/09/24 08:43:41;;;;;;;4.00;3.17;;;12.50;99.90;;;;;;4993344;28;20466;-66
2023/09/24 08:46:09;;;;;;;3.13;2.93;;;12.70;99.90;;;;;;4999081;28;20442;-67
2023/09/24 08:48:38;;;;;;;5.30;4.63;;;12.80;99.90;;;;;;5012984;28;20454;-66
2023/09/24 08:51:07;;;;;;;4.90;3.83;;;12.90;99.90;;;;;;5012114;28;20446;-66
2023/09/24 08:53:35;;;;;;;4.50;3.83;;;13.00;99.90;;;;;;5010984;28;20470;-67
2023/09/24 08:56:03;;;;;;;3.30;3.10;;;13.20;99.90;;;;;;5011319;28;20450;-66
2023/09/24 08:58:30;;;;;;;3.20;3.00;;;13.20;99.90;;;;;;5011484;28;20503;-66
2023/09/24 09:00:56;;;;;;;2.97;2.77;;;13.30;99.90;;;;;;5011319;28;20482;-66
2023/09/24 09:03:23;;;;;;;3.00;2.80;;;13.50;99.90;;;;;;5011066;28;20561;-66
2023/09/24 09:05:52;;;;;;;6.33;3.30;;;13.50;99.90;;;;;;5011264;28;20449;-66
2023/09/24 09:08:18;;;;;;;3.10;2.90;;;13.60;99.90;;;;;;5011271;28;20450;-66
2023/09/24 09:10:49;;;;;;;3.53;3.23;;;13.80;99.90;;;;;;5011463;28;21118;-66
2023/09/24 09:13:18;;;;;;;3.67;3.37;;;13.80;99.90;;;;;;5011146;28;20478;-66
2023/09/24 09:15:45;;;;;;;3.93;3.20;;;14.00;99.90;;;;;;5011337;28;20835;-67
2023/09/24 09:18:22;;;;;;;4.40;4.00;;;14.10;99.90;;;;;;5011332;28;20545;-66
2023/09/24 09:20:58;;;;;;;4.00;3.70;;;14.20;99.90;;;;;;5011089;28;20522;-67
2023/09/24 09:23:33;;;;;;;3.47;3.17;;;14.20;99.90;;;;;;5011054;28;20467;-66
2023/09/24 09:26:00;;;;;;;4.13;3.40;;;14.40;99.90;;;;;;5011205;28;20453;-66
2023/09/24 09:28:28;;;;;;;3.67;2.87;;;14.50;99.90;;;;;;5011167;28;20546;-65
2023/09/24 09:31:00;;;;;;;2.87;2.67;;;14.60;99.90;;;;;;5010750;28;20454;-65
2023/09/24 09:33:27;;;;;;;3.80;3.40;;;14.70;99.90;;;;;;5010842;28;20467;-65
2023/09/24 09:35:57;;;;;;;3.43;3.13;;;14.90;99.90;;;;;;5010935;28;20477;-67
2023/09/24 09:38:25;;;;;;;3.60;3.37;;;15.00;99.90;;;;;;5010980;28;20496;-64
2023/09/24 09:40:55;;;;;;;3.27;3.07;;;15.20;99.90;;;;;;5005353;28;20493;-65
2023/09/24 09:43:25;;;;;;;4.50;4.10;;;15.30;99.90;;;;;;4989829;28;20845;-64
2023/09/24 09:45:53;;;;;;;5.43;3.47;;;15.50;99.90;;;;;;4991518;28;20481;-64
2023/09/24 09:48:30;;;;;;;2.83;2.60;;;15.60;99.90;;;;;;4991233;28;20452;-66
2023/09/24 09:51:02;;;;;;;3.87;3.57;;;15.70;99.90;;;;;;4991319;28;21143;-64
2023/09/24 09:53:33;;;;;;;4.57;3.20;;;15.90;99.90;;;;;;4993844;28;20479;-64
2023/09/24 09:56:02;;;;;;;7.63;4.20;;;16.00;99.90;;;;;;4994901;28;20955;-64
2023/09/24 09:58:34;;;;;;;3.20;2.90;;;16.20;99.90;;;;;;4995116;28;20487;-67
2023/09/24 10:01:02;;;;;;;3.03;2.80;;;16.20;99.90;;;;;;4995113;28;20492;-65
2023/09/24 10:03:30;;;;;;;3.27;3.07;;;16.30;99.90;;;;;;4994790;28;20464;-65
2023/09/24 10:05:58;;;;;;;3.43;3.20;;;16.30;99.90;;;;;;4994853;28;20534;-65
2023/09/24 10:08:40;;;;;;;2.90;2.53;;;16.40;99.90;;;;;;4994989;28;20452;-64
2023/09/24 10:11:08;;;;;;;3.63;3.30;;;16.50;99.90;;;;;;4994984;28;20476;-64
2023/09/24 10:13:46;;;;;;;2.70;2.50;;;16.60;99.90;;;;;;4994448;28;20925;-65
2023/09/24 10:16:46;;;;;;;4.20;3.90;;;16.70;99.90;;;;;;4994787;28;20571;-64
2023/09/24 10:19:14;;;;;;;6.13;4.13;;;16.80;99.90;;;;;;4896508;29;20603;-64
2023/09/24 10:21:43;;;;;;;3.10;2.90;;;16.80;99.90;;;;;;4896365;29;20501;-65
2023/09/24 10:24:42;;;;;;;3.70;3.00;;;16.70;99.90;;;;;;4896084;29;20491;-65
2023/09/24 10:27:11;;;;;;;4.07;2.73;;;16.70;99.90;;;;;;4889142;29;20463;-64
2023/09/24 10:30:00;;;;;;;2.67;2.47;;;16.70;99.90;;;;;;4911027;29;20534;-64
2023/09/24 10:32:27;;;;;;;3.40;3.10;;;16.80;99.90;;;;;;4912813;29;20468;-63
2023/09/24 10:35:10;;;;;;;5.47;2.50;;;16.90;99.90;;;;;;4914857;29;20507;-63
2023/09/24 10:37:55;;;;;;;2.80;2.50;;;17.10;99.90;;;;;;4915163;29;20449;-63
2023/09/24 10:40:26;;;;;;;3.67;2.53;;;17.10;99.90;;;;;;4915480;29;20573;-65
2023/09/24 10:43:17;;;;;;;2.70;2.60;;;17.30;99.90;;;;;;4914996;29;20481;-63
2023/09/24 10:45:45;;;;;;;3.43;3.10;;;17.50;99.90;;;;;;4915239;29;20446;-64
2023/09/24 10:48:14;;;;;;;4.63;2.90;;;17.60;99.90;;;;;;4914429;29;20446;-63
2023/09/24 10:50:41;;;;;;;4.10;2.97;;;17.70;99.90;;;;;;4971549;28;20530;-63
2023/09/24 10:53:09;;;;;;;3.90;3.60;;;17.80;99.90;;;;;;5009048;28;20542;-63
2023/09/24 10:55:38;;;;;;;3.47;3.17;;;17.90;99.90;;;;;;5000938;28;20976;-64
2023/09/24 10:58:06;;;;;;;3.40;3.20;;;18.00;99.90;;;;;;5000723;28;20461;-63
2023/09/24 11:00:35;;;;;;;3.40;3.10;;;18.20;99.90;;;;;;5009010;28;20485;-62
2023/09/24 11:03:04;;;;;;;4.13;3.30;;;18.30;99.90;;;;;;4995853;28;20484;-63
2023/09/24 11:05:34;;;;;;;4.40;2.60;;;18.40;99.90;;;;;;5005112;28;20450;-63
2023/09/24 11:08:01;;;;;;;4.20;2.60;;;18.50;99.90;;;;;;5005031;28;20528;-63
2023/09/24 11:10:28;;;;;;;3.07;2.87;;;18.70;99.90;;;;;;4998415;28;20530;-63
2023/09/24 11:12:57;;;;;;;3.07;2.87;;;18.80;99.90;;;;;;5009388;28;20473;-63
2023/09/24 11:15:26;;;;;;;4.63;3.50;;;18.90;99.90;;;;;;4999935;28;20537;-63
2023/09/24 11:17:54;;;;;;;2.40;2.17;;;19.00;99.90;;;;;;5002807;28;20454;-63
2023/09/24 11:20:22;;;;;;;3.70;1.97;;;19.20;99.90;;;;;;5007400;28;20489;-63
2023/09/24 11:22:57;;;;;;;2.87;2.67;;;19.30;99.90;;;;;;4996458;28;20467;-63
2023/09/24 11:25:24;;;;;;;4.60;2.63;;;19.30;99.90;;;;;;5006692;28;20446;-64
2023/09/24 11:27:53;;;;;;;1.90;1.80;;;19.30;99.90;;;;;;5003216;28;21063;-63
2023/09/24 11:30:21;;;;;;;2.30;1.73;;;19.30;99.90;;;;;;4999215;28;20443;-63
2023/09/24 11:32:50;;;;;;;2.30;2.10;;;19.30;99.80;;;;;;5009049;28;20465;-63
2023/09/24 11:35:19;;;;;;;2.70;2.30;;;19.40;99.80;;;;;;4998035;28;20450;-63
2023/09/24 11:37:51;;;;;;;3.10;1.83;;;19.40;99.50;;;;;;5003366;28;20529;-63
2023/09/24 11:40:23;;;;;;;4.93;1.80;;;19.30;99.50;;;;;;5006509;28;20563;-63
2023/09/24 11:42:51;;;;;;;3.07;1.83;;;19.20;99.90;;;;;;4996178;28;20489;-63
2023/09/24 11:45:32;;;;;;;5.60;2.10;;;19.10;99.90;;;;;;5003697;28;20486;-63
2023/09/24 11:47:58;;;;;;;1.57;1.40;;;19.10;99.90;;;;;;5002310;28;20492;-63
2023/09/24 11:50:27;;;;;;;2.93;2.50;;;19.10;99.60;;;;;;5005192;28;20449;-62
2023/09/24 11:52:53;;;;;;;2.00;1.90;;;19.30;99.90;;;;;;4995045;28;20473;-64
2023/09/24 11:55:20;;;;;;;2.07;1.87;;;19.40;99.80;;;;;;5005538;28;20808;-64
2023/09/24 11:57:47;;;;;;;1.80;1.70;;;19.60;98.40;;;;;;4999450;28;20544;-63
2023/09/24 12:00:15;;;;;;;2.63;2.53;;;19.70;98.60;;;;;;5002441;28;20463;-64
2023/09/24 12:02:42;;;;;;;1.77;1.67;;;19.90;97.50;;;;;;5003425;28;20551;-64
2023/09/24 12:05:09;;;;;;;1.70;1.60;;;20.00;98.10;;;;;;4998845;28;20836;-64
2023/09/24 12:07:37;;;;;;;1.43;1.30;;;20.00;97.60;;;;;;5003365;28;20510;-64
2023/09/24 12:10:05;;;;;;;3.00;2.33;;;20.10;98.30;;;;;;5003842;28;20944;-63
2023/09/24 12:12:31;;;;;;;1.80;1.70;;;20.20;98.00;;;;;;5011338;28;20510;-64
2023/09/24 12:14:58;;;;;;;1.50;1.40;;;20.40;97.30;;;;;;4994885;28;20452;-64
2023/09/24 12:17:25;;;;;;;1.90;1.67;;;20.60;97.80;;;;;;5004930;28;20539;-64
2023/09/24 12:19:52;;;;;;;1.60;1.50;;;20.80;97.60;;;;;;5000861;28;20541;-63
2023/09/24 12:22:20;;;;;;;1.73;1.60;;;20.90;96.30;;;;;;4996967;28;20858;-64
2023/09/24 12:24:49;;;;;;;2.60;1.70;;;21.00;96.10;;;;;;4990851;28;20460;-64
2023/09/24 12:27:15;;;;;;;2.20;1.17;;;21.10;93.40;;;;;;4996530;28;20446;-63
2023/09/24 12:29:42;;;;;;;1.47;1.20;;;21.10;94.60;;;;;;5002683;28;20451;-64
2023/09/24 12:32:09;;;;;;;3.40;1.80;;;21.30;95.00;;;;;;5003399;28;20444;-64
2023/09/24 12:34:36;;;;;;;2.70;2.50;;;21.40;94.50;;;;;;5010601;28;20448;-63
2023/09/24 12:37:03;;;;;;;3.13;1.63;;;21.50;95.10;;;;;;4995222;28;20908;-64
2023/09/24 12:39:29;;;;;;;1.80;1.40;;;21.70;94.50;;;;;;5004032;28;20542;-64
2023/09/24 12:41:58;;;;;;;1.10;1.00;;;21.80;93.60;;;;;;4994747;28;20876;-64
2023/09/24 12:44:24;;;;;;;1.37;0.90;;;21.90;91.40;;;;;;5006153;28;20442;-64
2023/09/24 12:46:51;;;;;;;13.27;12.03;;;22.10;91.20;;;;;;4993589;28;20443;-64
2023/09/24 12:49:18;;;;;;;4.67;4.17;;;22.30;92.40;;;;;;5004969;28;20534;-64
2023/09/24 12:51:45;;;;;;;3.43;1.90;;;22.50;91.10;;;;;;5000372;28;20445;-64
2023/09/24 12:54:12;;;;;;;1.23;1.00;;;22.80;92.20;;;;;;4998095;28;20550;-64
2023/09/24 12:56:39;;;;;;;1.33;1.23;;;23.00;91.70;;;;;;5007804;28;20447;-64
2023/09/24 12:59:07;;;;;;;2.00;1.40;;;23.20;89.90;;;;;;5007269;28;20550;-64